sensor_id;sensor_type;location;lat;lon;timestamp;temperature;humidity
34492;DHT22;20737;49.908;8.126;2023-03-04T00:02:26;-0.70;99.90
34492;DHT22;20737;49.908;8.126;2023-03-04T00:04:53;-0.70;99.90
34492;DHT22;20737;49.908;8.126;2023-03-04T00:07:20;-0.70;99.90
34492;DHT22;20737;49.908;8.126;2023-03-04T00:09:46;-0.60;99.90
34492;DHT22;20737;49.908;8.126;2023-03-04T00:12:14;-0.60;99.90
34492;DHT22;20737;49.908;8.126;2023-03-04T00:14:42;-0.70;99.90
34492;DHT22;20737;49.908;8.126;2023-03-04T00:17:09;-0.70;99.90
34492;DHT22;20737;49.908;8.126;2023-03-04T00:19:35;-0.70;99.90
34492;DHT22;20737;49.908;8.126;2023-03-04T00:22:02;-0.80;99.90
34492;DHT22;20737;49.908;8.126;2023-03-04T00:24:29;-0.80;99.90
34492;DHT22;20737;49.908;8.126;2023-03-04T00:26:56;-0.90;99.90
34492;DHT22;20737;49.908;8.126;2023-03-04T00:29:24;-1.00;99.90
34492;DHT22;20737;49.908;8.126;2023-03-04T00:31:51;-1.00;99.90
34492;DHT22;20737;49.908;8.126;2023-03-04T00:34:17;-1.00;99.90
34492;DHT22;20737;49.908;8.126;2023-03-04T00:36:44;-1.00;99.90
34492;DHT22;20737;49.908;8.126;2023-03-04T00:39:11;-1.00;99.90
34492;DHT22;20737;49.908;8.126;2023-03-04T00:41:37;-1.10;99.90
34492;DHT22;20737;49.908;8.126;2023-03-04T00:44:07;-1.20;99.90
34492;DHT22;20737;49.908;8.126;2023-03-04T00:46:35;-1.30;99.90
34492;DHT22;20737;49.908;8.126;2023-03-04T00:49:04;-1.30;99.90
34492;DHT22;20737;49.908;8.126;2023-03-04T00:51:30;-1.20;99.90
34492;DHT22;20737;49.908;8.126;2023-03-04T00:53:57;-1.30;99.90
34492;DHT22;20737;49.908;8.126;2023-03-04T00:56:24;-1.20;99.90
34492;DHT22;20737;49.908;8.126;2023-03-04T00:58:50;-1.20;99.90
34492;DHT22;20737;49.908;8.126;2023-03-04T01:01:17;-1.20;99.90
34492;DHT22;20737;49.908;8.126;2023-03-04T01:03:45;-1.20;99.90
34492;DHT22;20737;49.908;8.126;2023-03-04T01:06:11;-1.20;99.90
34492;DHT22;20737;49.908;8.126;2023-03-04T01:08:39;-1.30;99.90
34492;DHT22;20737;49.908;8.126;2023-03-04T01:11:06;-1.40;99.90
34492;DHT22;20737;49.908;8.126;2023-03-04T01:13:36;-1.40;99.90
34492;DHT22;20737;49.908;8.126;2023-03-04T01:16:03;-1.40;99.90
34492;DHT22;20737;49.908;8.126;2023-03-04T01:18:29;-1.50;99.90
34492;DHT22;20737;49.908;8.126;2023-03-04T01:20:57;-1.40;99.90
34492;DHT22;20737;49.908;8.126;2023-03-04T01:23:30;-1.50;99.90
34492;DHT22;20737;49.908;8.126;2023-03-04T01:25:57;-1.50;99.90
34492;DHT22;20737;49.908;8.126;2023-03-04T01:28:24;-1.60;99.90
34492;DHT22;20737;49.908;8.126;2023-03-04T01:30:51;-1.70;99.90
34492;DHT22;20737;49.908;8.126;2023-03-04T01:33:18;-1.70;99.90
34492;DHT22;20737;49.908;8.126;2023-03-04T01:35:44;-1.70;99.90
34492;DHT22;20737;49.908;8.126;2023-03-04T01:38:12;-1.70;99.90
34492;DHT22;20737;49.908;8.126;2023-03-04T01:40:39;-1.70;99.90
34492;DHT22;20737;49.908;8.126;2023-03-04T01:43:05;-1.70;99.90
34492;DHT22;20737;49.908;8.126;2023-03-04T01:45:32;-1.80;99.90
34492;DHT22;20737;49.908;8.126;2023-03-04T01:48:11;-1.80;99.90
34492;DHT22;20737;49.908;8.126;2023-03-04T01:50:41;-1.80;99.90
34492;DHT22;20737;49.908;8.126;2023-03-04T01:53:09;-1.80;99.90
34492;DHT22;20737;49.908;8.126;2023-03-04T01:55:41;-1.90;99.90
34492;DHT22;20737;49.908;8.126;2023-03-04T01:58:08;-1.90;99.90
34492;DHT22;20737;49.908;8.126;2023-03-04T02:00:35;-1.90;99.90
34492;DHT22;20737;49.908;8.126;2023-03-04T02:03:09;-1.90;99.90
34492;DHT22;20737;49.908;8.126;2023-03-04T02:05:37;-1.90;99.90
34492;DHT22;20737;49.908;8.126;2023-03-04T02:08:07;-1.90;99.90
34492;DHT22;20737;49.908;8.126;2023-03-04T02:10:34;-1.90;99.90
34492;DHT22;20737;49.908;8.126;2023-03-04T02:13:02;-2.00;99.90
34492;DHT22;20737;49.908;8.126;2023-03-04T02:15:29;-2.00;99.90
34492;DHT22;20737;49.908;8.126;2023-03-04T02:17:56;-2.00;99.90
34492;DHT22;20737;49.908;8.126;2023-03-04T02:20:34;-2.00;99.90
34492;DHT22;20737;49.908;8.126;2023-03-04T02:23:05;-2.10;99.90
34492;DHT22;20737;49.908;8.126;2023-03-04T02:25:34;-2.10;99.90
34492;DHT22;20737;49.908;8.126;2023-03-04T02:28:05;-2.20;99.90
34492;DHT22;20737;49.908;8.126;2023-03-04T02:30:31;-2.20;99.90
34492;DHT22;20737;49.908;8.126;2023-03-04T02:33:02;-2.30;99.90
34492;DHT22;20737;49.908;8.126;2023-03-04T02:35:28;-2.30;99.90
34492;DHT22;20737;49.908;8.126;2023-03-04T02:37:55;-2.20;99.90
34492;DHT22;20737;49.908;8.126;2023-03-04T02:40:29;-2.20;99.90
34492;DHT22;20737;49.908;8.126;2023-03-04T02:42:57;-2.20;99.90
34492;DHT22;20737;49.908;8.126;2023-03-04T02:45:31;-2.30;99.90
34492;DHT22;20737;49.908;8.126;2023-03-04T02:48:01;-2.30;99.90
34492;DHT22;20737;49.908;8.126;2023-03-04T02:50:28;-2.30;99.90
34492;DHT22;20737;49.908;8.126;2023-03-04T02:52:57;-2.30;99.90
34492;DHT22;20737;49.908;8.126;2023-03-04T02:55:23;-2.30;99.90
34492;DHT22;20737;49.908;8.126;2023-03-04T02:57:50;-2.40;99.90
34492;DHT22;20737;49.908;8.126;2023-03-04T03:00:20;-2.40;99.90
34492;DHT22;20737;49.908;8.126;2023-03-04T03:02:50;-2.50;99.90
34492;DHT22;20737;49.908;8.126;2023-03-04T03:05:17;-2.50;99.90
34492;DHT22;20737;49.908;8.126;2023-03-04T03:07:43;-2.60;99.90
34492;DHT22;20737;49.908;8.126;2023-03-04T03:10:13;-2.60;99.90
34492;DHT22;20737;49.908;8.126;2023-03-04T03:12:39;-2.60;99.90
34492;DHT22;20737;49.908;8.126;2023-03-04T03:15:06;-2.60;99.90
34492;DHT22;20737;49.908;8.126;2023-03-04T03:17:33;-2.70;99.90
34492;DHT22;20737;49.908;8.126;2023-03-04T03:20:04;-2.70;99.90
34492;DHT22;20737;49.908;8.126;2023-03-04T03:22:31;-2.70;99.90
34492;DHT22;20737;49.908;8.126;2023-03-04T03:24:58;-2.70;99.90
34492;DHT22;20737;49.908;8.126;2023-03-04T03:27:28;-2.70;99.90
34492;DHT22;20737;49.908;8.126;2023-03-04T03:29:54;-2.70;99.90
34492;DHT22;20737;49.908;8.126;2023-03-04T03:32:21;-2.60;99.90
34492;DHT22;20737;49.908;8.126;2023-03-04T03:34:49;-2.60;99.90
34492;DHT22;20737;49.908;8.126;2023-03-04T03:37:18;-2.70;99.90
34492;DHT22;20737;49.908;8.126;2023-03-04T03:39:44;-2.80;99.90
34492;DHT22;20737;49.908;8.126;2023-03-04T03:42:11;-2.80;99.90
34492;DHT22;20737;49.908;8.126;2023-03-04T03:44:39;-2.80;99.90
34492;DHT22;20737;49.908;8.126;2023-03-04T03:47:06;-2.80;99.90
34492;DHT22;20737;49.908;8.126;2023-03-04T03:49:33;-2.70;99.90
34492;DHT22;20737;49.908;8.126;2023-03-04T03:52:00;-2.60;99.90
34492;DHT22;20737;49.908;8.126;2023-03-04T03:54:28;-2.60;99.90
34492;DHT22;20737;49.908;8.126;2023-03-04T03:56:54;-2.50;99.90
34492;DHT22;20737;49.908;8.126;2023-03-04T03:59:21;-2.40;99.90
34492;DHT22;20737;49.908;8.126;2023-03-04T04:01:50;-2.40;99.90
34492;DHT22;20737;49.908;8.126;2023-03-04T04:04:17;-2.40;99.90
34492;DHT22;20737;49.908;8.126;2023-03-04T04:06:43;-2.30;99.90
34492;DHT22;20737;49.908;8.126;2023-03-04T04:09:10;-2.30;99.90
34492;DHT22;20737;49.908;8.126;2023-03-04T04:11:39;-2.20;99.90
34492;DHT22;20737;49.908;8.126;2023-03-04T04:14:06;-2.20;99.90
34492;DHT22;20737;49.908;8.126;2023-03-04T04:16:32;-2.10;99.90
34492;DHT22;20737;49.908;8.126;2023-03-04T04:18:59;-2.00;99.90
34492;DHT22;20737;49.908;8.126;2023-03-04T04:21:25;-2.00;99.90
34492;DHT22;20737;49.908;8.126;2023-03-04T04:23:59;-1.90;99.90
34492;DHT22;20737;49.908;8.126;2023-03-04T04:26:25;-1.80;99.90
34492;DHT22;20737;49.908;8.126;2023-03-04T04:28:53;-1.70;99.90
34492;DHT22;20737;49.908;8.126;2023-03-04T04:31:20;-1.70;99.90
34492;DHT22;20737;49.908;8.126;2023-03-04T04:33:46;-1.60;99.90
34492;DHT22;20737;49.908;8.126;2023-03-04T04:36:13;-1.60;99.90
34492;DHT22;20737;49.908;8.126;2023-03-04T04:38:40;-1.60;99.90
34492;DHT22;20737;49.908;8.126;2023-03-04T04:41:12;-1.50;99.90
34492;DHT22;20737;49.908;8.126;2023-03-04T04:43:43;-1.40;99.90
34492;DHT22;20737;49.908;8.126;2023-03-04T04:46:11;-1.40;99.90
34492;DHT22;20737;49.908;8.126;2023-03-04T04:48:44;-1.30;99.90
34492;DHT22;20737;49.908;8.126;2023-03-04T04:51:11;-1.30;99.90
34492;DHT22;20737;49.908;8.126;2023-03-04T04:53:37;-1.30;99.90
34492;DHT22;20737;49.908;8.126;2023-03-04T04:56:07;-1.30;99.90
34492;DHT22;20737;49.908;8.126;2023-03-04T04:58:34;-1.30;99.90
34492;DHT22;20737;49.908;8.126;2023-03-04T05:01:03;-1.30;99.90
34492;DHT22;20737;49.908;8.126;2023-03-04T05:03:32;-1.20;99.90
34492;DHT22;20737;49.908;8.126;2023-03-04T05:05:58;-1.10;99.90
34492;DHT22;20737;49.908;8.126;2023-03-04T05:08:25;-1.10;99.90
34492;DHT22;20737;49.908;8.126;2023-03-04T05:10:55;-1.00;99.90
34492;DHT22;20737;49.908;8.126;2023-03-04T05:13:21;-1.00;99.90
34492;DHT22;20737;49.908;8.126;2023-03-04T05:15:50;-1.00;99.90
34492;DHT22;20737;49.908;8.126;2023-03-04T05:18:19;-1.00;99.90
34492;DHT22;20737;49.908;8.126;2023-03-04T05:20:50;-1.00;99.90
34492;DHT22;20737;49.908;8.126;2023-03-04T05:23:17;-1.00;99.90
34492;DHT22;20737;49.908;8.126;2023-03-04T05:25:43;-0.90;99.90
34492;DHT22;20737;49.908;8.126;2023-03-04T05:28:10;-0.90;99.90
34492;DHT22;20737;49.908;8.126;2023-03-04T05:30:37;-0.90;99.90
34492;DHT22;20737;49.908;8.126;2023-03-04T05:33:04;-0.80;99.90
34492;DHT22;20737;49.908;8.126;2023-03-04T05:35:31;-0.80;99.90
34492;DHT22;20737;49.908;8.126;2023-03-04T05:38:02;-0.80;99.90
34492;DHT22;20737;49.908;8.126;2023-03-04T05:40:29;-0.80;99.90
34492;DHT22;20737;49.908;8.126;2023-03-04T05:42:55;-0.70;99.90
34492;DHT22;20737;49.908;8.126;2023-03-04T05:45:22;-0.70;99.90
34492;DHT22;20737;49.908;8.126;2023-03-04T05:47:50;-0.60;99.90
34492;DHT22;20737;49.908;8.126;2023-03-04T05:50:19;-0.60;99.90
34492;DHT22;20737;49.908;8.126;2023-03-04T05:52:45;-0.50;99.90
34492;DHT22;20737;49.908;8.126;2023-03-04T05:55:14;-0.50;99.90
34492;DHT22;20737;49.908;8.126;2023-03-04T05:57:41;-0.50;99.90
34492;DHT22;20737;49.908;8.126;2023-03-04T06:00:09;-0.40;99.90
34492;DHT22;20737;49.908;8.126;2023-03-04T06:02:37;-0.40;99.90
34492;DHT22;20737;49.908;8.126;2023-03-04T06:05:04;-0.30;99.90
34492;DHT22;20737;49.908;8.126;2023-03-04T06:07:33;-0.30;99.90
34492;DHT22;20737;49.908;8.126;2023-03-04T06:10:03;-0.30;99.90
34492;DHT22;20737;49.908;8.126;2023-03-04T06:12:31;-0.20;99.90
34492;DHT22;20737;49.908;8.126;2023-03-04T06:14:57;-0.20;99.90
34492;DHT22;20737;49.908;8.126;2023-03-04T06:17:27;-0.20;99.90
34492;DHT22;20737;49.908;8.126;2023-03-04T06:19:53;-0.20;99.90
34492;DHT22;20737;49.908;8.126;2023-03-04T06:22:20;-0.10;99.90
34492;DHT22;20737;49.908;8.126;2023-03-04T06:24:46;0.00;99.90
34492;DHT22;20737;49.908;8.126;2023-03-04T06:27:13;0.00;99.90
34492;DHT22;20737;49.908;8.126;2023-03-04T06:29:42;0.10;99.90
34492;DHT22;20737;49.908;8.126;2023-03-04T06:32:08;0.10;99.90
34492;DHT22;20737;49.908;8.126;2023-03-04T06:34:35;0.10;99.90
34492;DHT22;20737;49.908;8.126;2023-03-04T06:37:02;0.10;99.90
34492;DHT22;20737;49.908;8.126;2023-03-04T06:39:29;0.20;99.90
34492;DHT22;20737;49.908;8.126;2023-03-04T06:41:55;0.20;99.90
34492;DHT22;20737;49.908;8.126;2023-03-04T06:44:22;0.30;99.90
34492;DHT22;20737;49.908;8.126;2023-03-04T06:46:50;0.30;99.90
34492;DHT22;20737;49.908;8.126;2023-03-04T06:49:16;0.30;99.90
34492;DHT22;20737;49.908;8.126;2023-03-04T06:51:43;0.40;99.90
34492;DHT22;20737;49.908;8.126;2023-03-04T06:54:10;0.50;99.90
34492;DHT22;20737;49.908;8.126;2023-03-04T06:56:36;0.50;99.90
34492;DHT22;20737;49.908;8.126;2023-03-04T06:59:03;0.50;99.90
34492;DHT22;20737;49.908;8.126;2023-03-04T07:01:30;0.50;99.90
34492;DHT22;20737;49.908;8.126;2023-03-04T07:06:23;0.70;99.90
34492;DHT22;20737;49.908;8.126;2023-03-04T07:08:51;0.70;99.90
34492;DHT22;20737;49.908;8.126;2023-03-04T07:11:18;0.80;99.90
34492;DHT22;20737;49.908;8.126;2023-03-04T07:13:49;0.80;99.90
34492;DHT22;20737;49.908;8.126;2023-03-04T07:16:20;0.90;99.90
34492;DHT22;20737;49.908;8.126;2023-03-04T07:18:47;0.90;99.90
34492;DHT22;20737;49.908;8.126;2023-03-04T07:21:15;1.00;99.90
34492;DHT22;20737;49.908;8.126;2023-03-04T07:23:44;1.00;99.90
34492;DHT22;20737;49.908;8.126;2023-03-04T07:26:11;1.10;99.90
34492;DHT22;20737;49.908;8.126;2023-03-04T07:28:38;1.20;99.90
34492;DHT22;20737;49.908;8.126;2023-03-04T07:31:08;1.20;99.90
34492;DHT22;20737;49.908;8.126;2023-03-04T07:33:35;1.30;99.90
34492;DHT22;20737;49.908;8.126;2023-03-04T07:36:05;1.40;99.90
34492;DHT22;20737;49.908;8.126;2023-03-04T07:38:34;1.40;99.90
34492;DHT22;20737;49.908;8.126;2023-03-04T07:41:03;1.50;99.90
34492;DHT22;20737;49.908;8.126;2023-03-04T07:43:33;1.50;99.90
34492;DHT22;20737;49.908;8.126;2023-03-04T07:46:00;1.70;99.90
34492;DHT22;20737;49.908;8.126;2023-03-04T07:48:29;1.70;99.90
34492;DHT22;20737;49.908;8.126;2023-03-04T07:51:06;1.90;99.90
34492;DHT22;20737;49.908;8.126;2023-03-04T07:53:34;1.90;99.90
34492;DHT22;20737;49.908;8.126;2023-03-04T07:56:03;1.90;99.90
34492;DHT22;20737;49.908;8.126;2023-03-04T07:58:30;2.00;99.90
34492;DHT22;20737;49.908;8.126;2023-03-04T08:00:57;2.10;99.90
34492;DHT22;20737;49.908;8.126;2023-03-04T08:03:24;2.20;99.90
34492;DHT22;20737;49.908;8.126;2023-03-04T08:05:51;2.20;99.90
34492;DHT22;20737;49.908;8.126;2023-03-04T08:08:18;2.30;99.90
34492;DHT22;20737;49.908;8.126;2023-03-04T08:10:44;2.40;99.90
34492;DHT22;20737;49.908;8.126;2023-03-04T08:13:13;2.40;99.90
34492;DHT22;20737;49.908;8.126;2023-03-04T08:15:40;2.60;99.90
34492;DHT22;20737;49.908;8.126;2023-03-04T08:18:07;2.70;99.90
34492;DHT22;20737;49.908;8.126;2023-03-04T08:20:34;2.70;99.90
34492;DHT22;20737;49.908;8.126;2023-03-04T08:23:01;2.90;99.90
34492;DHT22;20737;49.908;8.126;2023-03-04T08:25:28;3.00;99.90
34492;DHT22;20737;49.908;8.126;2023-03-04T08:27:55;3.00;99.90
34492;DHT22;20737;49.908;8.126;2023-03-04T08:30:23;3.20;99.90
34492;DHT22;20737;49.908;8.126;2023-03-04T08:32:50;3.30;99.90
34492;DHT22;20737;49.908;8.126;2023-03-04T08:35:18;3.40;99.90
34492;DHT22;20737;49.908;8.126;2023-03-04T08:37:44;3.50;99.90
34492;DHT22;20737;49.908;8.126;2023-03-04T08:40:12;3.60;99.90
34492;DHT22;20737;49.908;8.126;2023-03-04T08:42:39;3.60;99.90
34492;DHT22;20737;49.908;8.126;2023-03-04T08:45:07;3.70;99.90
34492;DHT22;20737;49.908;8.126;2023-03-04T08:47:37;3.90;99.90
34492;DHT22;20737;49.908;8.126;2023-03-04T08:50:07;4.00;99.90
34492;DHT22;20737;49.908;8.126;2023-03-04T08:52:35;4.00;99.90
34492;DHT22;20737;49.908;8.126;2023-03-04T08:55:01;4.10;99.90
34492;DHT22;20737;49.908;8.126;2023-03-04T08:57:28;4.20;99.90
34492;DHT22;20737;49.908;8.126;2023-03-04T08:59:55;4.30;99.90
34492;DHT22;20737;49.908;8.126;2023-03-04T09:02:22;4.40;99.90
34492;DHT22;20737;49.908;8.126;2023-03-04T09:04:50;4.40;99.90
34492;DHT22;20737;49.908;8.126;2023-03-04T09:07:17;4.50;99.90
34492;DHT22;20737;49.908;8.126;2023-03-04T09:09:43;4.60;99.90
34492;DHT22;20737;49.908;8.126;2023-03-04T09:12:10;4.60;99.90
34492;DHT22;20737;49.908;8.126;2023-03-04T09:14:37;4.70;99.90
34492;DHT22;20737;49.908;8.126;2023-03-04T09:17:04;4.70;99.90
34492;DHT22;20737;49.908;8.126;2023-03-04T09:19:31;4.70;99.90
34492;DHT22;20737;49.908;8.126;2023-03-04T09:21:59;4.80;99.90
34492;DHT22;20737;49.908;8.126;2023-03-04T09:24:26;4.80;99.90
34492;DHT22;20737;49.908;8.126;2023-03-04T09:26:53;4.90;99.90
34492;DHT22;20737;49.908;8.126;2023-03-04T09:29:21;5.00;99.90
34492;DHT22;20737;49.908;8.126;2023-03-04T09:31:48;5.10;99.90
34492;DHT22;20737;49.908;8.126;2023-03-04T09:34:19;5.10;99.90
34492;DHT22;20737;49.908;8.126;2023-03-04T09:36:46;5.10;99.90
34492;DHT22;20737;49.908;8.126;2023-03-04T09:39:14;5.10;99.90
34492;DHT22;20737;49.908;8.126;2023-03-04T09:41:43;5.20;99.90
34492;DHT22;20737;49.908;8.126;2023-03-04T09:44:20;5.20;99.90
34492;DHT22;20737;49.908;8.126;2023-03-04T09:46:48;5.20;99.90
34492;DHT22;20737;49.908;8.126;2023-03-04T09:49:17;5.30;99.90
34492;DHT22;20737;49.908;8.126;2023-03-04T09:51:56;5.30;99.90
34492;DHT22;20737;49.908;8.126;2023-03-04T09:54:42;5.40;99.90
34492;DHT22;20737;49.908;8.126;2023-03-04T09:57:24;5.50;99.90
34492;DHT22;20737;49.908;8.126;2023-03-04T10:00:04;5.50;99.90
34492;DHT22;20737;49.908;8.126;2023-03-04T10:02:42;5.60;99.90
34492;DHT22;20737;49.908;8.126;2023-03-04T10:05:13;5.60;99.90
34492;DHT22;20737;49.908;8.126;2023-03-04T10:07:42;5.70;99.90
34492;DHT22;20737;49.908;8.126;2023-03-04T10:10:18;5.70;99.90
34492;DHT22;20737;49.908;8.126;2023-03-04T10:12:48;5.70;99.90
34492;DHT22;20737;49.908;8.126;2023-03-04T10:15:24;5.90;99.90
34492;DHT22;20737;49.908;8.126;2023-03-04T10:17:56;6.00;99.90
34492;DHT22;20737;49.908;8.126;2023-03-04T10:20:32;6.10;99.90
34492;DHT22;20737;49.908;8.126;2023-03-04T10:23:09;5.90;99.90
34492;DHT22;20737;49.908;8.126;2023-03-04T10:25:40;5.90;99.90
34492;DHT22;20737;49.908;8.126;2023-03-04T10:28:11;5.90;99.90
34492;DHT22;20737;49.908;8.126;2023-03-04T10:30:48;6.00;99.90
34492;DHT22;20737;49.908;8.126;2023-03-04T10:33:18;6.00;99.90
34492;DHT22;20737;49.908;8.126;2023-03-04T10:35:50;6.10;99.90
34492;DHT22;20737;49.908;8.126;2023-03-04T10:38:20;6.10;99.90
34492;DHT22;20737;49.908;8.126;2023-03-04T10:40:51;6.20;99.90
34492;DHT22;20737;49.908;8.126;2023-03-04T10:43:20;6.20;99.90
34492;DHT22;20737;49.908;8.126;2023-03-04T10:45:47;6.20;99.90
34492;DHT22;20737;49.908;8.126;2023-03-04T10:48:21;6.30;99.90
34492;DHT22;20737;49.908;8.126;2023-03-04T10:50:54;6.20;99.90
34492;DHT22;20737;49.908;8.126;2023-03-04T10:53:38;6.10;99.90
34492;DHT22;20737;49.908;8.126;2023-03-04T10:56:35;6.00;99.90
34492;DHT22;20737;49.908;8.126;2023-03-04T10:59:32;6.10;99.90
34492;DHT22;20737;49.908;8.126;2023-03-04T11:02:00;6.20;99.90
34492;DHT22;20737;49.908;8.126;2023-03-04T11:04:33;6.20;99.90
34492;DHT22;20737;49.908;8.126;2023-03-04T11:07:00;6.10;99.90
34492;DHT22;20737;49.908;8.126;2023-03-04T11:09:28;6.10;99.90
34492;DHT22;20737;49.908;8.126;2023-03-04T11:11:58;6.10;99.90
34492;DHT22;20737;49.908;8.126;2023-03-04T11:14:27;6.00;99.90
34492;DHT22;20737;49.908;8.126;2023-03-04T11:16:59;5.90;99.90
34492;DHT22;20737;49.908;8.126;2023-03-04T11:19:30;5.90;99.90
34492;DHT22;20737;49.908;8.126;2023-03-04T11:21:57;5.80;99.90
34492;DHT22;20737;49.908;8.126;2023-03-04T11:24:27;5.90;99.90
34492;DHT22;20737;49.908;8.126;2023-03-04T11:27:00;5.90;99.90
34492;DHT22;20737;49.908;8.126;2023-03-04T11:29:29;6.00;99.90
34492;DHT22;20737;49.908;8.126;2023-03-04T11:32:01;6.00;99.90
34492;DHT22;20737;49.908;8.126;2023-03-04T11:34:36;6.10;99.90
34492;DHT22;20737;49.908;8.126;2023-03-04T11:37:06;6.20;99.90
34492;DHT22;20737;49.908;8.126;2023-03-04T11:39:36;6.30;99.90
34492;DHT22;20737;49.908;8.126;2023-03-04T11:42:20;6.40;99.90
34492;DHT22;20737;49.908;8.126;2023-03-04T11:44:49;6.30;99.90
34492;DHT22;20737;49.908;8.126;2023-03-04T11:47:31;6.30;99.90
34492;DHT22;20737;49.908;8.126;2023-03-04T11:50:11;6.20;99.90
34492;DHT22;20737;49.908;8.126;2023-03-04T11:53:00;6.10;99.90
34492;DHT22;20737;49.908;8.126;2023-03-04T11:55:37;6.20;99.90
34492;DHT22;20737;49.908;8.126;2023-03-04T12:01:03;6.40;99.90
34492;DHT22;20737;49.908;8.126;2023-03-04T12:04:05;6.40;99.90
34492;DHT22;20737;49.908;8.126;2023-03-04T12:06:40;6.50;99.90
34492;DHT22;20737;49.908;8.126;2023-03-04T12:09:30;6.60;99.90
34492;DHT22;20737;49.908;8.126;2023-03-04T12:12:08;6.70;99.90
34492;DHT22;20737;49.908;8.126;2023-03-04T12:14:46;6.70;99.90
34492;DHT22;20737;49.908;8.126;2023-03-04T12:17:33;6.50;99.90
34492;DHT22;20737;49.908;8.126;2023-03-04T12:20:24;6.10;99.90
34492;DHT22;20737;49.908;8.126;2023-03-04T12:22:59;6.20;99.90
34492;DHT22;20737;49.908;8.126;2023-03-04T12:25:38;6.20;99.90
34492;DHT22;20737;49.908;8.126;2023-03-04T12:28:21;6.40;99.90
34492;DHT22;20737;49.908;8.126;2023-03-04T12:31:07;6.40;99.90
34492;DHT22;20737;49.908;8.126;2023-03-04T12:33:44;6.40;99.90
34492;DHT22;20737;49.908;8.126;2023-03-04T12:36:22;6.50;99.90
34492;DHT22;20737;49.908;8.126;2023-03-04T12:38:59;6.60;99.90
34492;DHT22;20737;49.908;8.126;2023-03-04T12:41:33;6.70;99.90
34492;DHT22;20737;49.908;8.126;2023-03-04T12:44:12;6.80;99.90
34492;DHT22;20737;49.908;8.126;2023-03-04T12:49:45;6.90;99.90
34492;DHT22;20737;49.908;8.126;2023-03-04T12:52:20;6.80;99.90
34492;DHT22;20737;49.908;8.126;2023-03-04T12:54:51;6.80;99.90
34492;DHT22;20737;49.908;8.126;2023-03-04T12:57:23;6.70;99.90
34492;DHT22;20737;49.908;8.126;2023-03-04T12:59:57;6.70;99.90
34492;DHT22;20737;49.908;8.126;2023-03-04T13:02:38;6.80;99.90
34492;DHT22;20737;49.908;8.126;2023-03-04T13:05:31;7.00;99.90
34492;DHT22;20737;49.908;8.126;2023-03-04T13:08:10;7.50;99.90
34492;DHT22;20737;49.908;8.126;2023-03-04T13:10:39;7.70;99.90
34492;DHT22;20737;49.908;8.126;2023-03-04T13:13:32;7.60;99.90
34492;DHT22;20737;49.908;8.126;2023-03-04T13:16:02;7.60;99.90
34492;DHT22;20737;49.908;8.126;2023-03-04T13:18:32;7.50;99.90
34492;DHT22;20737;49.908;8.126;2023-03-04T13:21:16;7.50;99.90
34492;DHT22;20737;49.908;8.126;2023-03-04T13:23:50;7.50;99.90
34492;DHT22;20737;49.908;8.126;2023-03-04T13:26:20;7.40;99.90
34492;DHT22;20737;49.908;8.126;2023-03-04T13:28:53;7.40;99.90
34492;DHT22;20737;49.908;8.126;2023-03-04T13:31:22;7.50;99.90
34492;DHT22;20737;49.908;8.126;2023-03-04T13:34:00;7.60;99.90
34492;DHT22;20737;49.908;8.126;2023-03-04T13:36:52;7.40;99.90
34492;DHT22;20737;49.908;8.126;2023-03-04T13:39:32;7.60;99.90
34492;DHT22;20737;49.908;8.126;2023-03-04T13:42:00;7.40;99.90
34492;DHT22;20737;49.908;8.126;2023-03-04T13:47:41;7.40;99.90
34492;DHT22;20737;49.908;8.126;2023-03-04T13:50:35;7.60;99.90
34492;DHT22;20737;49.908;8.126;2023-03-04T13:53:40;7.50;99.90
34492;DHT22;20737;49.908;8.126;2023-03-04T13:56:20;7.60;99.90
34492;DHT22;20737;49.908;8.126;2023-03-04T13:58:49;7.60;99.90
34492;DHT22;20737;49.908;8.126;2023-03-04T14:01:24;7.60;99.90
34492;DHT22;20737;49.908;8.126;2023-03-04T14:03:52;7.50;99.90
34492;DHT22;20737;49.908;8.126;2023-03-04T14:06:22;7.50;99.90
34492;DHT22;20737;49.908;8.126;2023-03-04T14:08:50;7.60;99.90
34492;DHT22;20737;49.908;8.126;2023-03-04T14:11:29;7.50;99.90
34492;DHT22;20737;49.908;8.126;2023-03-04T14:13:59;7.50;99.90
34492;DHT22;20737;49.908;8.126;2023-03-04T14:16:32;7.50;99.90
34492;DHT22;20737;49.908;8.126;2023-03-04T14:19:02;7.40;99.90
34492;DHT22;20737;49.908;8.126;2023-03-04T14:21:33;7.40;99.90
34492;DHT22;20737;49.908;8.126;2023-03-04T14:24:06;7.50;99.90
34492;DHT22;20737;49.908;8.126;2023-03-04T14:26:34;7.50;99.90
34492;DHT22;20737;49.908;8.126;2023-03-04T14:29:00;7.50;99.90
34492;DHT22;20737;49.908;8.126;2023-03-04T14:31:30;7.40;99.90
34492;DHT22;20737;49.908;8.126;2023-03-04T14:34:00;7.40;99.90
34492;DHT22;20737;49.908;8.126;2023-03-04T14:36:29;7.40;99.90
34492;DHT22;20737;49.908;8.126;2023-03-04T14:38:59;7.40;99.90
34492;DHT22;20737;49.908;8.126;2023-03-04T14:41:31;7.40;99.90
34492;DHT22;20737;49.908;8.126;2023-03-04T14:44:07;7.30;99.90
34492;DHT22;20737;49.908;8.126;2023-03-04T14:46:38;7.30;99.90
34492;DHT22;20737;49.908;8.126;2023-03-04T14:49:12;7.20;99.90
34492;DHT22;20737;49.908;8.126;2023-03-04T14:51:41;7.20;99.90
34492;DHT22;20737;49.908;8.126;2023-03-04T14:54:29;7.10;99.90
34492;DHT22;20737;49.908;8.126;2023-03-04T14:56:56;7.10;99.90
34492;DHT22;20737;49.908;8.126;2023-03-04T14:59:31;7.10;99.90
34492;DHT22;20737;49.908;8.126;2023-03-04T15:02:19;7.00;99.90
34492;DHT22;20737;49.908;8.126;2023-03-04T15:04:47;7.00;99.90
34492;DHT22;20737;49.908;8.126;2023-03-04T15:07:15;6.90;99.90
34492;DHT22;20737;49.908;8.126;2023-03-04T15:09:52;7.00;99.90
34492;DHT22;20737;49.908;8.126;2023-03-04T15:12:23;7.00;99.90
34492;DHT22;20737;49.908;8.126;2023-03-04T15:14:54;7.00;99.90
34492;DHT22;20737;49.908;8.126;2023-03-04T15:17:24;6.90;99.90
34492;DHT22;20737;49.908;8.126;2023-03-04T15:19:58;7.00;99.90
34492;DHT22;20737;49.908;8.126;2023-03-04T15:22:25;7.00;99.90
34492;DHT22;20737;49.908;8.126;2023-03-04T15:24:53;7.00;99.90
34492;DHT22;20737;49.908;8.126;2023-03-04T15:27:21;6.90;99.90
34492;DHT22;20737;49.908;8.126;2023-03-04T15:29:50;6.90;99.90
34492;DHT22;20737;49.908;8.126;2023-03-04T15:32:21;7.00;99.90
34492;DHT22;20737;49.908;8.126;2023-03-04T15:34:48;7.00;99.90
34492;DHT22;20737;49.908;8.126;2023-03-04T15:37:19;7.00;99.90
34492;DHT22;20737;49.908;8.126;2023-03-04T15:39:47;7.00;99.90
34492;DHT22;20737;49.908;8.126;2023-03-04T15:42:15;7.00;99.90
34492;DHT22;20737;49.908;8.126;2023-03-04T15:44:42;7.00;99.90
34492;DHT22;20737;49.908;8.126;2023-03-04T15:47:10;7.00;99.90
34492;DHT22;20737;49.908;8.126;2023-03-04T15:49:38;7.00;99.90
34492;DHT22;20737;49.908;8.126;2023-03-04T15:52:08;7.00;99.90
34492;DHT22;20737;49.908;8.126;2023-03-04T15:54:38;6.90;99.90
34492;DHT22;20737;49.908;8.126;2023-03-04T15:57:11;6.90;99.90
34492;DHT22;20737;49.908;8.126;2023-03-04T15:59:42;6.90;99.90
34492;DHT22;20737;49.908;8.126;2023-03-04T16:02:12;6.90;99.90
34492;DHT22;20737;49.908;8.126;2023-03-04T16:04:41;6.80;99.90
34492;DHT22;20737;49.908;8.126;2023-03-04T16:07:13;6.80;99.90
34492;DHT22;20737;49.908;8.126;2023-03-04T16:09:41;6.80;99.90
34492;DHT22;20737;49.908;8.126;2023-03-04T16:12:09;6.80;99.90